Lopik, Netherlands
Current Conditions -  °F | °C
As of 1:25 PM on Sunday 21 Dec 2014 (Local Time) from EHRD Reporting Station
Broken Clouds Broken Clouds  
Wind Chill: 42°   Ceiling: 4000
Heat Index: 48°   Visibility: 6mi
Dew Point: 43°   Wind: 17mph
Humidity: 82%   Direction: 240°WSW
Pressure: 30.27"   Gusts: NA
Location:  51.97°N, 4.95°E
Report Text: EHRD 211225Z AUTO 24015KT 200V270 9999 FEW016 SCT022 BKN04009/06 Q1025 NOSIG
Loading
Personal Weather Stations






























Interactive Weather Map New forecast layout! Learn more

10-Day Weather Forecast

Advertisements
Track Severe Weather on mobile